Time;durP1;ratioP1;P1;durP2;ratioP2;P2;SDS_P1;SDS_P2;PMS_P1;PMS_P2;Temp;Humidity;BMP_temperature;BMP_pressure;BME280_temperature;BME280_humidity;BME280_pressure;Samples;Min_cycle;Max_cycle;Signal;HPM_P1;HPM_P2
2022/08/07 00:01:36;;;;;;;3.05;2.75;;;27.00;42.80;;;30.92;27.73;102410.53;5115426;28;20047;-9
2022/08/07 00:04:02;;;;;;;3.10;2.63;;;27.00;42.80;;;30.90;27.54;102409.78;5115132;28;20048;-10
2022/08/07 00:06:28;;;;;;;4.22;3.28;;;27.00;42.80;;;30.87;27.61;102405.47;5115447;28;20044;-9
2022/08/07 00:08:54;;;;;;;3.25;2.95;;;27.00;42.80;;;30.90;27.78;102404.38;5114824;28;20063;-10
2022/08/07 00:11:20;;;;;;;3.28;2.97;;;27.00;42.80;;;30.87;27.67;102397.38;5115364;28;20044;-10
2022/08/07 00:13:46;;;;;;;4.13;3.17;;;27.00;42.80;;;30.90;27.74;102407.09;5115269;28;20508;-10
2022/08/07 00:16:13;;;;;;;3.15;2.85;;;27.00;42.80;;;30.89;27.85;102395.44;5115647;28;20055;-9
2022/08/07 00:18:39;;;;;;;3.45;3.00;;;27.00;42.80;;;30.87;27.81;102386.56;5115117;28;20050;-10
2022/08/07 00:21:08;;;;;;;2.90;2.60;;;27.00;42.80;;;30.89;27.65;102392.75;5114985;28;20047;-9
2022/08/07 00:23:36;;;;;;;3.17;2.88;;;27.00;42.80;;;30.88;27.82;102385.59;5096715;28;20043;-9
2022/08/07 00:26:05;;;;;;;3.30;2.80;;;27.00;42.90;;;30.88;27.71;102382.06;5114004;28;20043;-9
2022/08/07 00:28:31;;;;;;;3.38;2.92;;;26.90;42.70;;;30.87;27.54;102389.28;5115008;28;20096;-9
2022/08/07 00:30:58;;;;;;;3.13;2.55;;;26.90;42.80;;;30.87;27.72;102383.88;5095526;28;20046;-9
2022/08/07 00:33:27;;;;;;;3.58;3.00;;;26.90;42.80;;;30.90;27.67;102388.19;5096661;28;20532;-10
2022/08/07 00:35:56;;;;;;;3.38;3.08;;;26.90;42.70;;;30.89;27.76;102387.34;5096490;28;20555;-9
2022/08/07 00:38:23;;;;;;;3.30;3.00;;;27.00;42.90;;;30.87;27.61;102383.03;5096323;28;20043;-9
2022/08/07 00:40:49;;;;;;;3.35;3.03;;;26.90;42.80;;;30.89;27.69;102381.94;5096391;28;20047;-10
2022/08/07 00:43:16;;;;;;;3.63;3.25;;;27.00;42.80;;;30.88;27.54;102377.50;5114793;28;20044;-9
2022/08/07 00:45:42;;;;;;;4.00;3.60;;;27.00;42.90;;;30.85;27.48;102378.59;5096338;28;20519;-9
2022/08/07 00:48:09;;;;;;;3.50;3.13;;;26.90;42.80;;;30.88;27.72;102382.06;5096380;28;20079;-9
2022/08/07 00:50:36;;;;;;;4.13;3.13;;;27.00;42.80;;;30.88;27.57;102371.25;5114836;28;20055;-9
2022/08/07 00:53:02;;;;;;;3.10;2.80;;;27.00;42.80;;;30.91;27.53;102381.81;5114557;28;20083;-10
2022/08/07 00:55:28;;;;;;;3.50;3.20;;;27.00;42.80;;;30.95;27.78;102383.31;5114524;28;20143;-9
2022/08/07 00:57:54;;;;;;;3.25;2.95;;;27.00;42.80;;;30.95;27.54;102386.84;5114474;28;20058;-9
2022/08/07 01:00:21;;;;;;;3.70;3.35;;;27.00;42.80;;;30.92;27.58;102378.09;5095793;28;20126;-9
2022/08/07 01:02:46;;;;;;;3.33;3.03;;;27.00;42.80;;;30.93;27.56;102379.84;5112993;28;20047;-10
2022/08/07 01:05:12;;;;;;;4.13;3.45;;;27.00;42.80;;;30.90;27.50;102372.84;5114342;28;20048;-10
2022/08/07 01:07:39;;;;;;;3.33;3.03;;;26.90;42.70;;;30.93;27.72;102380.69;5114453;28;20043;-10
2022/08/07 01:10:07;;;;;;;3.97;3.10;;;27.00;42.80;;;30.95;27.23;102377.91;5096335;28;20143;-10
2022/08/07 01:12:35;;;;;;;3.85;3.38;;;27.00;42.70;;;30.99;27.37;102382.06;5096002;28;20043;-10
2022/08/07 01:15:01;;;;;;;3.63;3.33;;;27.00;42.60;;;30.96;27.30;102375.06;5114287;28;20052;-9
2022/08/07 01:17:28;;;;;;;3.20;2.90;;;27.00;42.60;;;30.99;27.34;102374.84;5096234;28;20481;-9
2022/08/07 01:20:08;;;;;;;3.60;3.30;;;27.00;42.60;;;30.96;27.45;102374.22;5114014;28;20408;-9
2022/08/07 01:22:37;;;;;;;3.08;2.78;;;27.00;42.60;;;31.00;27.54;102381.94;5096030;28;20128;-9
2022/08/07 01:25:03;;;;;;;3.63;3.13;;;27.00;42.70;;;30.99;27.49;102379.34;5095876;28;20130;-10
2022/08/07 01:27:29;;;;;;;3.72;3.08;;;27.00;42.70;;;30.96;27.33;102375.06;5079285;28;20061;-9
2022/08/07 01:29:55;;;;;;;3.85;3.00;;;27.00;42.70;;;30.95;27.49;102375.19;5113805;28;20164;-9
2022/08/07 01:32:21;;;;;;;3.22;2.92;;;26.90;42.60;;;30.95;27.61;102367.09;5095624;28;20044;-9
2022/08/07 01:34:49;;;;;;;4.10;2.97;;;26.90;42.60;;;30.96;27.42;102375.06;5095602;28;20143;-9
2022/08/07 01:37:16;;;;;;;3.40;3.10;;;27.00;42.70;;;30.91;27.43;102371.00;5078575;28;20062;-9
2022/08/07 01:39:46;;;;;;;4.22;3.50;;;26.90;42.70;;;30.92;27.46;102362.75;5095447;28;20405;-10
2022/08/07 01:42:24;;;;;;;4.22;3.10;;;26.90;42.70;;;30.95;27.39;102364.41;5095796;28;20476;-9
2022/08/07 01:44:51;;;;;;;3.78;3.10;;;27.00;42.70;;;30.96;27.32;102369.66;5095580;28;20127;-9
2022/08/07 01:47:17;;;;;;;3.65;3.05;;;27.00;42.70;;;30.91;27.33;102358.34;5094918;28;20058;-10
2022/08/07 01:49:43;;;;;;;3.60;3.10;;;26.90;42.70;;;30.92;27.34;102361.91;5078504;28;20043;-9
2022/08/07 01:52:09;;;;;;;3.72;3.30;;;26.90;42.60;;;30.91;27.52;102357.50;5095832;28;20134;-9
2022/08/07 01:54:39;;;;;;;3.88;3.58;;;26.90;42.70;;;30.92;27.61;102367.31;5078425;28;20432;-10
2022/08/07 01:57:16;;;;;;;3.35;3.05;;;26.90;42.70;;;30.91;27.63;102361.06;5095007;28;20048;-9
2022/08/07 01:59:53;;;;;;;3.55;3.17;;;26.90;42.70;;;30.91;27.63;102366.47;5078301;28;20080;-9
2022/08/07 02:02:27;;;;;;;4.13;3.50;;;26.90;42.60;;;30.92;27.44;102361.91;5095564;28;20043;-9
2022/08/07 02:05:11;;;;;;;3.45;3.15;;;26.90;42.70;;;30.91;27.68;102366.47;5095175;28;20039;-9
2022/08/07 02:07:50;;;;;;;3.58;3.15;;;26.90;42.70;;;30.90;27.50;102363.88;5093850;28;20516;-10
2022/08/07 02:10:23;;;;;;;3.80;3.40;;;26.90;42.70;;;30.95;27.26;102367.94;5078535;28;20043;-9
2022/08/07 02:12:51;;;;;;;3.30;3.00;;;26.90;42.70;;;30.96;27.17;102369.66;5093321;28;20040;-9
2022/08/07 02:15:25;;;;;;;3.70;2.97;;;26.90;42.60;;;30.93;27.28;102361.78;5094987;28;20070;-9
2022/08/07 02:17:54;;;;;;;4.28;3.53;;;26.90;42.60;;;30.92;27.49;102362.75;5076024;28;20052;-10
2022/08/07 02:20:22;;;;;;;3.65;3.10;;;26.90;42.60;;;30.96;27.60;102368.81;5077979;28;20048;-9
2022/08/07 02:22:51;;;;;;;3.50;3.20;;;26.90;42.70;;;30.93;27.50;102360.94;5094479;28;20040;-9
2022/08/07 02:25:20;;;;;;;3.65;3.22;;;26.90;42.60;;;30.92;27.36;102349.25;5077932;28;20063;-9
2022/08/07 02:27:57;;;;;;;3.92;3.53;;;26.90;42.60;;;30.95;27.35;102351.75;5112602;28;20112;-10
2022/08/07 02:30:26;;;;;;;3.17;2.88;;;26.90;42.50;;;30.97;27.37;102355.19;5094829;28;20134;-9
2022/08/07 02:32:55;;;;;;;3.83;3.45;;;26.90;42.50;;;30.95;27.12;102349.03;5095239;28;20043;-9
2022/08/07 02:35:22;;;;;;;4.18;3.72;;;26.90;42.60;;;30.96;27.33;102350.75;5094744;28;20067;-9
2022/08/07 02:37:54;;;;;;;3.45;3.15;;;26.90;42.60;;;30.95;27.42;102348.19;5078249;28;20058;-10
2022/08/07 02:40:19;;;;;;;3.35;2.90;;;26.90;42.60;;;30.92;27.40;102334.91;5077745;28;20208;-9
2022/08/07 02:42:46;;;;;;;3.80;3.15;;;26.90;42.60;;;30.95;27.42;102345.50;5112992;28;20052;-9
2022/08/07 02:45:15;;;;;;;3.28;2.97;;;26.90;42.60;;;30.93;27.68;102339.31;5078089;28;20048;-9
2022/08/07 02:47:41;;;;;;;3.45;3.15;;;26.90;42.60;;;30.92;27.33;102343.00;5094416;28;20040;-10
2022/08/07 02:50:13;;;;;;;3.58;3.20;;;26.90;42.60;;;30.93;27.35;102345.56;5080834;28;20044;-9
2022/08/07 02:52:57;;;;;;;3.80;3.50;;;26.90;42.60;;;30.91;27.50;102344.00;5098219;28;20047;-9
2022/08/07 02:55:31;;;;;;;3.28;2.88;;;26.90;42.60;;;30.89;27.57;102345.94;5081011;28;20093;-10
2022/08/07 02:58:07;;;;;;;4.22;3.25;;;26.90;42.60;;;30.89;27.39;102337.84;5081057;28;20104;-10
2022/08/07 03:00:37;;;;;;;3.50;3.20;;;26.90;42.60;;;30.92;27.41;102345.69;5081420;28;20040;-9
2022/08/07 03:03:06;;;;;;;3.30;3.00;;;26.90;42.60;;;30.93;27.16;102342.88;5079938;28;20485;-9
2022/08/07 03:05:37;;;;;;;3.60;3.30;;;26.90;42.60;;;30.94;27.25;102349.13;5098195;28;20048;-10
2022/08/07 03:08:06;;;;;;;3.95;3.33;;;26.90;42.60;;;30.91;27.63;102339.44;5116104;28;20048;-9
2022/08/07 03:10:32;;;;;;;4.03;3.30;;;26.90;42.60;;;30.93;27.33;102337.47;5114879;28;20043;-10
2022/08/07 03:13:00;;;;;;;3.53;3.22;;;26.90;42.60;;;30.91;27.38;102334.06;5097983;28;20493;-10
2022/08/07 03:15:27;;;;;;;5.72;3.60;;;26.90;42.60;;;30.91;27.27;102335.91;5081217;28;20493;-9
2022/08/07 03:17:54;;;;;;;4.05;3.10;;;26.90;42.60;;;30.93;27.21;102331.22;5097964;28;20692;-11
2022/08/07 03:20:23;;;;;;;3.20;2.90;;;26.90;42.60;;;30.93;27.52;102331.22;5097784;28;20043;-9
2022/08/07 03:22:52;;;;;;;3.88;3.28;;;26.90;42.70;;;30.89;27.58;102329.75;5097720;28;20135;-10
2022/08/07 03:25:19;;;;;;;6.07;3.28;;;26.90;42.60;;;30.91;27.50;102330.50;5080817;28;20039;-9
2022/08/07 03:27:47;;;;;;;4.10;3.42;;;26.90;42.60;;;30.88;27.46;102323.50;5115981;28;20047;-10
2022/08/07 03:30:15;;;;;;;4.90;3.78;;;26.90;42.60;;;30.89;27.33;102321.63;5080896;28;20489;-9
2022/08/07 03:32:47;;;;;;;3.40;3.10;;;26.90;42.60;;;30.90;27.32;102331.47;5114288;28;20051;-9
2022/08/07 03:35:21;;;;;;;4.03;3.15;;;26.90;42.60;;;30.87;27.26;102321.75;5081361;28;20043;-9
2022/08/07 03:38:04;;;;;;;3.95;3.55;;;26.90;42.60;;;30.87;27.45;102329.88;5080455;28;20051;-10
2022/08/07 03:40:31;;;;;;;4.03;3.30;;;26.90;42.70;;;30.90;27.41;102331.47;5078462;28;20139;-9
2022/08/07 03:42:59;;;;;;;4.53;3.42;;;26.90;42.70;;;30.88;27.35;102328.91;5080242;28;20047;-9
2022/08/07 03:45:27;;;;;;;3.85;3.45;;;26.80;42.60;;;30.85;27.21;102330.00;5097707;28;20497;-9
2022/08/07 03:47:56;;;;;;;4.07;3.67;;;26.90;42.70;;;30.89;27.26;102335.16;5080088;28;20040;-10
2022/08/07 03:50:23;;;;;;;4.30;3.42;;;26.80;42.60;;;30.86;27.26;102328.16;5114262;28;20504;-10
2022/08/07 03:52:52;;;;;;;4.65;3.47;;;26.90;42.60;;;30.84;27.56;102328.28;5097263;28;20048;-9
2022/08/07 03:55:19;;;;;;;4.47;3.50;;;26.90;42.70;;;30.86;27.27;102330.88;5080920;28;20134;-10
2022/08/07 03:57:47;;;;;;;4.30;3.75;;;26.90;42.60;;;30.87;27.43;102348.78;5096858;28;20047;-10
2022/08/07 04:00:14;;;;;;;4.85;3.50;;;26.90;42.60;;;30.88;27.35;102337.00;5097337;28;20040;-10
2022/08/07 04:02:46;;;;;;;3.50;3.20;;;26.90;42.60;;;30.89;27.35;102336.03;5097017;28;20094;-10
2022/08/07 04:05:20;;;;;;;3.42;3.13;;;26.90;42.60;;;30.89;27.37;102336.03;5081280;28;20043;-10
2022/08/07 04:07:47;;;;;;;4.00;3.28;;;26.90;42.60;;;30.91;27.26;102338.59;5080497;28;20495;-10
2022/08/07 04:10:18;;;;;;;3.55;3.05;;;26.90;42.50;;;30.92;27.14;102337.59;5080511;28;20054;-9
2022/08/07 04:12:46;;;;;;;3.47;3.08;;;26.90;42.50;;;30.95;27.39;102345.50;5080395;28;20058;-9
2022/08/07 04:15:12;;;;;;;3.80;3.50;;;26.90;42.50;;;30.97;27.24;102348.91;5097144;28;20048;-10
2022/08/07 04:17:42;;;;;;;3.60;3.22;;;27.00;42.50;;;30.96;27.38;102345.38;5078417;28;20101;-10
2022/08/07 04:20:11;;;;;;;3.63;3.25;;;27.00;42.50;;;30.99;27.45;102346.94;5111907;28;20135;-10
2022/08/07 04:22:40;;;;;;;2.40;2.20;;;27.00;42.40;;;31.06;27.09;102350.88;5097473;28;20070;-9
2022/08/07 04:25:08;;;;;;;4.30;3.35;;;27.00;42.30;;;31.08;27.14;102353.44;5096634;28;20293;-9
2022/08/07 04:27:35;;;;;;;3.60;3.30;;;27.10;42.40;;;31.06;27.34;102355.41;5096105;28;20056;-10
2022/08/07 04:30:03;;;;;;;4.68;3.40;;;27.10;42.30;;;31.06;27.28;102348.16;5078869;28;20081;-10
2022/08/07 04:32:48;;;;;;;3.83;3.40;;;27.10;42.20;;;31.13;27.19;102360.19;5096636;28;20040;-10
2022/08/07 04:35:16;;;;;;;3.65;3.35;;;27.20;42.20;;;31.16;27.14;102359.09;5096969;28;20460;-10
2022/08/07 04:37:44;;;;;;;4.57;3.50;;;27.20;42.20;;;31.15;27.04;102355.50;5092635;28;20056;-10
2022/08/07 04:40:11;;;;;;;3.80;3.17;;;27.30;42.20;;;31.19;27.22;102367.78;5079707;28;20079;-10
2022/08/07 04:42:37;;;;;;;3.28;2.90;;;27.30;42.10;;;31.24;27.11;102369.22;5096659;28;20056;-9
2022/08/07 04:45:06;;;;;;;3.90;3.50;;;27.30;42.10;;;31.24;27.21;102369.22;5079034;28;20578;-10
2022/08/07 04:47:52;;;;;;;3.60;3.30;;;27.30;42.10;;;31.20;27.34;102366.78;5096380;28;20051;-9
2022/08/07 04:50:44;;;;;;;3.47;3.17;;;27.40;42.20;;;31.26;27.07;102373.53;5096499;28;20051;-10
2022/08/07 04:53:52;;;;;;;3.03;2.72;;;27.40;42.10;;;31.25;27.30;102368.25;5061903;28;20072;-9
2022/08/07 04:56:29;;;;;;;4.82;3.35;;;27.40;42.10;;;31.30;27.05;102376.84;5078816;28;20377;-9
2022/08/07 04:59:16;;;;;;;3.95;3.63;;;27.40;42.10;;;31.35;27.21;102383.56;5062599;28;20047;-9
2022/08/07 05:02:27;;;;;;;3.30;3.00;;;27.40;42.00;;;31.39;27.19;102385.03;5096175;28;20036;-9
2022/08/07 05:05:17;;;;;;;3.95;3.60;;;27.50;41.90;;;31.49;26.86;102379.75;5092644;28;20050;-9
2022/08/07 05:08:20;;;;;;;3.80;3.30;;;27.50;41.80;;;31.48;26.93;102371.75;5114378;28;20043;-9
2022/08/07 05:11:22;;;;;;;3.78;3.38;;;27.60;41.80;;;31.57;26.57;102368.28;5095722;28;20282;-9
2022/08/07 05:14:00;;;;;;;4.78;3.65;;;27.70;41.70;;;31.57;26.71;102368.28;5073370;28;20125;-10
2022/08/07 05:16:29;;;;;;;3.20;2.90;;;27.80;41.70;;;31.64;26.55;102384.84;5095532;28;20096;-10
2022/08/07 05:19:01;;;;;;;4.00;3.60;;;27.80;41.60;;;31.67;26.70;102379.19;5095873;28;20394;-10
2022/08/07 05:21:30;;;;;;;4.00;3.60;;;27.80;41.60;;;31.73;26.67;102387.63;5112815;28;20047;-9
2022/08/07 05:24:03;;;;;;;3.58;3.28;;;27.90;41.50;;;31.72;26.78;102385.06;5079004;28;20171;-9
2022/08/07 05:26:33;;;;;;;3.80;3.15;;;27.90;41.50;;;31.79;26.66;102382.69;5079529;28;20047;-9
2022/08/07 05:29:07;;;;;;;3.17;2.88;;;28.00;41.50;;;31.85;26.51;102382.19;5077807;28;20106;-10
2022/08/07 05:31:37;;;;;;;3.58;3.28;;;28.00;41.40;;;31.86;26.37;102373.06;5112955;28;20476;-9
2022/08/07 05:34:14;;;;;;;3.35;3.05;;;28.00;41.40;;;31.87;26.34;102386.44;5077226;28;20543;-10
2022/08/07 05:36:46;;;;;;;3.88;3.22;;;28.10;41.40;;;31.92;26.19;102386.06;5079370;28;20090;-9
2022/08/07 05:39:30;;;;;;;3.15;2.80;;;28.10;41.30;;;31.97;26.50;102374.84;5097874;28;20058;-9
2022/08/07 05:41:59;;;;;;;3.70;3.30;;;28.10;41.20;;;32.06;26.10;102385.78;5095499;28;20184;-10
2022/08/07 05:44:28;;;;;;;4.22;3.83;;;28.20;41.20;;;32.10;26.52;102380.97;5045731;28;20039;-10
2022/08/07 05:46:55;;;;;;;3.55;3.00;;;28.30;41.20;;;32.13;26.49;102386.97;5113789;28;20047;-10
2022/08/07 05:49:25;;;;;;;3.60;3.30;;;28.30;41.10;;;32.18;26.11;102388.41;5077618;28;20049;-9
2022/08/07 05:51:52;;;;;;;3.83;3.50;;;28.30;41.00;;;32.20;26.19;102384.59;5079241;28;20047;-9
2022/08/07 05:54:20;;;;;;;3.67;3.38;;;28.40;41.10;;;32.24;26.12;102379.75;5095344;28;20046;-10
2022/08/07 05:56:47;;;;;;;3.78;3.35;;;28.40;40.90;;;32.29;25.86;102377.50;5095724;28;20040;-9
2022/08/07 05:59:17;;;;;;;3.20;2.90;;;28.50;40.90;;;32.32;25.78;102374.53;5093633;28;20055;-9
2022/08/07 06:01:47;;;;;;;3.10;2.80;;;28.60;40.90;;;32.43;25.77;102381.72;5077068;28;20098;-10
2022/08/07 06:04:20;;;;;;;3.60;3.30;;;28.60;40.80;;;32.45;26.17;102386.00;5093487;28;20051;-9
2022/08/07 06:06:46;;;;;;;3.85;3.45;;;28.70;40.80;;;32.51;26.16;102384.59;5078611;28;20434;-9
2022/08/07 06:09:15;;;;;;;3.88;3.28;;;28.70;40.70;;;32.55;25.68;102379.78;5076271;28;20052;-9
2022/08/07 06:11:45;;;;;;;3.25;2.95;;;28.70;40.60;;;32.60;25.67;102381.06;5079211;28;20370;-9
2022/08/07 06:14:11;;;;;;;3.15;2.75;;;28.80;40.50;;;32.65;25.90;102376.13;5094462;28;20151;-9
2022/08/07 06:16:38;;;;;;;3.42;3.00;;;28.80;40.50;;;32.66;25.56;102377.88;5095123;28;20552;-9
2022/08/07 06:19:07;;;;;;;3.42;3.13;;;28.90;40.50;;;32.71;25.57;102376.59;5078877;28;20394;-10
2022/08/07 06:21:35;;;;;;;3.72;3.42;;;28.90;40.40;;;32.74;25.34;102379.88;5078562;28;20043;-9
2022/08/07 06:24:03;;;;;;;3.38;3.05;;;29.00;40.40;;;32.81;25.30;102391.91;5078126;28;20048;-10
2022/08/07 06:26:30;;;;;;;3.80;3.45;;;29.00;40.30;;;32.82;25.37;102382.75;5078027;28;20126;-9
2022/08/07 06:28:58;;;;;;;3.28;2.97;;;29.00;40.30;;;32.89;25.61;102384.91;5093686;28;20134;-9
2022/08/07 06:31:25;;;;;;;3.10;2.80;;;29.10;40.30;;;32.86;25.62;102378.78;5094794;28;20058;-10
2022/08/07 06:33:53;;;;;;;3.67;3.28;;;29.10;40.20;;;32.96;25.50;102386.94;5094790;28;20043;-10
2022/08/07 06:36:19;;;;;;;3.50;3.20;;;29.10;40.10;;;32.98;25.48;102387.66;5094598;28;20514;-10
2022/08/07 06:38:49;;;;;;;3.83;3.23;;;29.20;40.10;;;32.99;25.12;102378.50;5094506;28;20106;-10
2022/08/07 06:41:23;;;;;;;3.17;2.88;;;29.20;40.10;;;33.03;25.33;102389.97;5094641;28;20288;-10
2022/08/07 06:43:50;;;;;;;3.55;3.25;;;29.20;40.60;;;33.03;25.15;102379.97;5077892;28;20100;-10
2022/08/07 06:46:20;;;;;;;3.55;3.22;;;29.20;40.00;;;33.10;25.12;102379.41;5062169;28;20070;-9
2022/08/07 06:48:46;;;;;;;3.25;2.95;;;29.30;40.00;;;33.13;25.38;102382.69;5110933;28;20060;-9
2022/08/07 06:51:23;;;;;;;3.42;3.13;;;29.30;40.00;;;33.16;25.58;102387.00;5094919;28;20063;-9
2022/08/07 06:53:51;;;;;;;3.88;3.22;;;29.40;40.00;;;33.19;25.25;102393.00;5094595;28;20134;-10
2022/08/07 06:56:38;;;;;;;3.05;2.80;;;29.40;39.90;;;33.23;25.00;102396.31;5094218;28;20079;-9
2022/08/07 06:59:13;;;;;;;3.33;3.03;;;29.40;39.90;;;33.25;25.33;102391.59;5094363;28;20048;-10
2022/08/07 07:01:44;;;;;;;3.63;3.33;;;29.40;39.80;;;33.31;25.01;102392.88;5111344;28;20075;-9
2022/08/07 07:04:11;;;;;;;3.47;3.17;;;29.50;39.80;;;33.32;25.13;102392.75;5092374;28;20055;-9
2022/08/07 07:06:43;;;;;;;3.28;2.97;;;29.50;39.70;;;33.36;25.29;102383.34;5095434;28;20045;-10
2022/08/07 07:09:29;;;;;;;3.30;3.00;;;29.50;39.70;;;33.40;24.84;102383.91;5094234;28;20047;-9
2022/08/07 07:12:07;;;;;;;3.17;2.83;;;29.60;39.70;;;33.41;24.89;102391.91;5111465;28;20039;-9
2022/08/07 07:15:13;;;;;;;3.60;3.30;;;29.60;39.60;;;33.47;24.93;102395.03;5112673;28;20149;-9
2022/08/07 07:18:14;;;;;;;3.42;2.80;;;29.60;39.60;;;33.44;25.13;102390.75;5083670;28;20043;-10
2022/08/07 07:20:55;;;;;;;3.63;3.30;;;29.70;39.70;;;33.45;25.01;102389.75;5112454;28;20067;-10
2022/08/07 07:23:22;;;;;;;;;;;29.60;39.60;;;33.63;24.53;102386.31;5112920;28;20401;-10
2022/08/07 07:25:52;;;;;;;3.35;3.05;;;29.70;39.60;;;33.57;24.88;102380.47;5112788;28;19916;-9
2022/08/07 07:28:21;;;;;;;;;;;29.70;39.50;;;33.70;24.78;102390.22;5112729;28;20384;-10
2022/08/07 07:31:01;;;;;;;3.70;3.20;;;29.70;39.50;;;33.59;24.59;102383.03;5112700;28;19916;-9
2022/08/07 07:33:31;;;;;;;3.53;3.22;;;29.70;39.50;;;33.56;24.53;102377.91;5093996;28;20051;-9
2022/08/07 07:35:59;;;;;;;3.17;2.85;;;29.70;39.50;;;33.59;25.00;102381.19;5113760;28;20048;-10
2022/08/07 07:38:25;;;;;;;3.40;3.10;;;29.70;39.50;;;33.60;24.91;102387.50;5096967;28;20526;-9
2022/08/07 07:40:55;;;;;;;3.08;2.78;;;29.70;39.60;;;33.58;24.62;102379.50;5097523;28;20043;-9
2022/08/07 07:43:22;;;;;;;3.45;3.15;;;29.70;39.50;;;33.60;24.61;102382.06;5115855;28;20075;-9
2022/08/07 07:45:48;;;;;;;2.95;2.65;;;29.70;39.60;;;33.58;24.57;102374.06;5095910;28;20044;-9
2022/08/07 07:48:20;;;;;;;3.55;3.20;;;29.70;39.50;;;33.59;24.72;102378.47;5116088;28;20488;-10
2022/08/07 07:50:51;;;;;;;3.40;3.10;;;29.70;39.50;;;33.60;24.80;102379.34;5095420;28;20063;-9
2022/08/07 07:53:20;;;;;;;3.38;3.08;;;29.70;39.60;;;33.62;24.66;102376.50;5097425;28;20047;-9
2022/08/07 07:55:46;;;;;;;3.28;2.97;;;29.70;39.50;;;33.61;24.82;102367.47;5115647;28;20130;-10
2022/08/07 07:58:14;;;;;;;4.00;3.45;;;29.80;39.50;;;33.60;24.97;102371.22;5097327;28;20143;-10
2022/08/07 08:00:44;;;;;;;3.35;3.05;;;29.70;39.50;;;33.62;24.54;102373.78;5115521;28;20051;-9
2022/08/07 08:03:14;;;;;;;3.40;3.10;;;29.80;39.50;;;33.64;24.83;102377.19;5115807;28;20044;-10
2022/08/07 08:05:41;;;;;;;;;;;29.70;39.40;;;33.75;24.48;102367.09;5097599;28;20473;-9
2022/08/07 08:08:09;;;;;;;2.88;2.58;;;29.80;39.50;;;33.67;24.83;102372.34;5097060;28;19950;-10
2022/08/07 08:10:36;;;;;;;3.00;2.70;;;29.70;39.40;;;33.63;24.38;102361.91;5097204;28;20079;-9
2022/08/07 08:13:02;;;;;;;3.13;2.80;;;29.80;39.40;;;33.64;24.39;102355.50;5096849;28;20416;-9
2022/08/07 08:15:35;;;;;;;3.35;2.90;;;29.80;39.50;;;33.60;24.58;102363.06;5115166;28;20872;-10
2022/08/07 08:18:02;;;;;;;3.30;3.00;;;29.70;39.50;;;33.61;24.58;102362.06;5115283;28;20078;-10
2022/08/07 08:20:31;;;;;;;3.20;2.90;;;29.70;39.50;;;33.60;24.93;102357.66;5115060;28;20043;-9
2022/08/07 08:28:34;;;;;;;3.30;3.00;;;29.60;39.60;;;33.51;24.71;102348.50;5099334;28;20058;-10
2022/08/07 08:31:04;;;;;;;3.15;2.83;;;29.60;39.60;;;33.52;24.40;102346.66;5097031;28;20497;-10
2022/08/07 08:33:35;;;;;;;3.30;2.63;;;29.50;39.70;;;33.47;24.77;102347.09;5096035;28;20093;-9
2022/08/07 08:36:02;;;;;;;3.50;3.00;;;29.50;39.80;;;33.45;24.55;102342.78;5097152;28;20051;-9
2022/08/07 08:38:36;;;;;;;3.55;3.15;;;29.50;39.80;;;33.42;24.79;102346.66;5095317;28;20044;-10
2022/08/07 08:41:16;;;;;;;2.83;2.63;;;29.40;39.80;;;33.38;24.90;102348.81;5097134;28;20047;-10
2022/08/07 08:43:59;;;;;;;3.20;2.90;;;29.40;39.80;;;33.40;24.78;102345.94;5096547;28;20126;-9
2022/08/07 08:46:42;;;;;;;3.30;2.80;;;29.40;39.90;;;33.36;25.13;102358.06;5096163;28;20484;-9
2022/08/07 08:49:32;;;;;;;3.63;3.25;;;29.30;39.90;;;33.33;24.77;102345.66;5096489;28;20058;-9
2022/08/07 08:52:25;;;;;;;3.40;3.10;;;29.30;40.00;;;33.30;24.93;102355.94;5114649;28;20043;-9
2022/08/07 08:54:58;;;;;;;3.72;3.33;;;29.20;40.00;;;33.26;24.96;102349.06;5096055;28;20057;-10
2022/08/07 08:57:50;;;;;;;3.47;3.17;;;29.20;40.10;;;33.20;25.08;102351.34;5094276;28;20087;-10
2022/08/07 09:00:16;;;;;;;3.20;2.88;;;29.10;40.10;;;33.19;24.81;102341.50;5096368;28;20044;-10
2022/08/07 09:03:03;;;;;;;3.25;2.95;;;29.10;40.30;;;33.10;25.31;102342.31;5096286;28;20047;-9
2022/08/07 09:06:02;;;;;;;3.22;2.92;;;29.00;40.30;;;33.07;24.89;102339.03;5096226;28;20516;-9
2022/08/07 09:08:44;;;;;;;3.00;2.70;;;28.90;40.30;;;33.04;24.99;102340.16;5114217;28;20501;-9
2022/08/07 09:11:17;;;;;;;3.50;3.20;;;28.90;40.40;;;33.02;24.95;102343.00;5114731;28;20047;-9
2022/08/07 09:14:18;;;;;;;3.00;2.80;;;28.90;40.40;;;33.00;24.98;102342.31;5114923;28;20163;-9
2022/08/07 09:17:03;;;;;;;;;;;28.90;40.40;;;33.09;24.95;102342.47;5105175;28;20044;-9
2022/08/07 09:19:58;;;;;;;3.60;3.00;;;28.90;40.40;;;33.00;25.49;102350.44;5095978;28;20010;-9
2022/08/07 09:22:49;;;;;;;3.67;3.38;;;28.90;40.50;;;32.95;25.31;102343.72;5095388;28;20139;-10
2022/08/07 09:25:33;;;;;;;2.70;2.50;;;28.80;40.50;;;32.87;25.54;102339.00;5094129;28;20131;-9
2022/08/07 09:28:07;;;;;;;2.95;2.70;;;28.80;40.50;;;32.86;25.46;102334.56;5093698;28;20048;-10
2022/08/07 09:31:15;;;;;;;3.03;2.75;;;28.80;40.60;;;32.83;25.32;102345.69;5114472;28;20047;-9
2022/08/07 09:34:37;;;;;;;3.28;2.97;;;28.80;40.70;;;32.80;25.20;102336.00;5114019;28;20040;-10
2022/08/07 09:37:16;;;;;;;3.00;2.65;;;28.70;40.70;;;32.77;25.61;102336.25;5057882;28;20130;-9
2022/08/07 09:40:04;;;;;;;3.17;2.85;;;28.70;40.70;;;32.73;25.28;102325.84;5095470;28;20059;-9
2022/08/07 09:43:11;;;;;;;3.13;2.88;;;28.70;40.70;;;32.76;25.35;102328.28;5095933;28;20116;-9
2022/08/07 09:45:53;;;;;;;3.05;2.75;;;28.70;40.80;;;32.71;25.71;102336.81;5113816;28;20039;-9
2022/08/07 09:48:39;;;;;;;2.83;2.63;;;28.70;40.80;;;32.71;25.75;102333.25;5113829;28;20055;-9
2022/08/07 09:51:35;;;;;;;3.50;3.20;;;28.70;40.80;;;32.71;25.43;102325.13;5095611;28;20043;-9
2022/08/07 09:54:05;;;;;;;3.58;3.28;;;28.60;40.80;;;32.67;25.65;102324.53;5113719;28;20131;-9
2022/08/07 09:56:54;;;;;;;2.97;2.67;;;28.60;40.70;;;32.66;25.45;102314.69;5095586;28;20438;-10
2022/08/07 09:59:32;;;;;;;4.32;3.10;;;28.60;40.70;;;32.65;25.59;102313.00;5093160;28;20101;-9
2022/08/07 10:02:49;;;;;;;3.22;2.95;;;28.60;40.70;;;32.64;25.79;102314.84;5113789;28;20043;-9
2022/08/07 10:05:55;;;;;;;3.08;2.78;;;28.60;40.80;;;32.61;25.66;102320.56;5113803;28;20043;-9
2022/08/07 10:08:44;;;;;;;3.05;2.80;;;28.60;40.80;;;32.61;25.79;102315.13;5113454;28;20051;-10
2022/08/07 10:11:45;;;;;;;3.67;2.92;;;28.60;40.80;;;32.58;25.32;102304.53;5113736;28;20047;-10
2022/08/07 10:14:44;;;;;;;3.08;2.63;;;28.60;40.80;;;32.59;25.53;102306.25;5113433;28;20066;-10
2022/08/07 10:17:44;;;;;;;3.53;3.15;;;28.60;40.80;;;32.59;25.62;102305.38;5094971;28;20044;-10
2022/08/07 10:21:06;;;;;;;3.10;2.88;;;28.60;40.80;;;32.59;25.79;102292.69;5113106;28;20051;-9
2022/08/07 10:23:48;;;;;;;3.42;2.67;;;28.60;40.80;;;32.55;25.71;102296.69;5113327;28;20536;-9
2022/08/07 10:27:08;;;;;;;3.20;2.92;;;28.60;40.70;;;32.59;25.82;102299.97;5095245;28;20083;-9
2022/08/07 10:29:59;;;;;;;3.30;2.90;;;28.60;40.60;;;32.55;25.32;102288.56;5094271;28;20055;-9
2022/08/07 10:33:17;;;;;;;3.28;2.92;;;28.60;40.70;;;32.59;25.57;102281.88;5113205;28;20050;-9
2022/08/07 10:36:24;;;;;;;3.10;2.80;;;28.60;40.70;;;32.58;25.82;102285.59;5093488;28;20133;-10
2022/08/07 10:39:09;;;;;;;3.67;2.85;;;28.60;40.70;;;32.57;25.85;102286.56;5096715;28;20131;-9
2022/08/07 10:41:43;;;;;;;3.08;2.78;;;28.60;40.60;;;32.56;25.55;102281.28;5113020;28;20048;-10
2022/08/07 10:44:43;;;;;;;3.00;2.70;;;28.60;40.60;;;32.57;25.87;102277.59;5112849;28;20086;-10
2022/08/07 10:47:24;;;;;;;3.00;2.70;;;28.60;40.60;;;32.56;25.45;102279.47;5112801;28;20048;-10
2022/08/07 10:50:26;;;;;;;3.10;2.80;;;28.60;40.60;;;32.55;25.72;102266.91;5112942;28;20130;-10
2022/08/07 10:53:23;;;;;;;3.65;2.78;;;28.60;40.60;;;32.59;25.73;102264.78;5113382;28;20393;-10
2022/08/07 10:56:02;;;;;;;3.03;2.72;;;28.60;40.60;;;32.59;25.38;102267.47;5094658;28;20441;-10